Time;durP1;ratioP1;P1;durP2;ratioP2;P2;SDS_P1;SDS_P2;PMS_P1;PMS_P2;Temp;Humidity;BMP_temperature;BMP_pressure;BME280_temperature;BME280_humidity;BME280_pressure;Samples;Min_cycle;Max_cycle;Signal;HPM_P1;HPM_P2
2022/03/03 00:00:25;;;;;;;17.50;13.27;;;4.90;52.90;;;-142.21;88.63;112049.66;5080411;28;20201;-75
2022/03/03 00:02:52;;;;;;;17.20;13.82;;;4.80;52.50;;;-142.21;87.99;112049.66;5075266;28;20563;-76
2022/03/03 00:05:20;;;;;;;17.00;13.38;;;4.80;52.50;;;-142.21;88.01;112049.66;5072774;28;20215;-73
2022/03/03 00:07:47;;;;;;;15.80;14.05;;;4.80;52.00;;;-142.21;87.79;112049.66;5038925;28;20198;-75
2022/03/03 00:10:14;;;;;;;17.48;14.60;;;4.90;52.20;;;-142.21;88.02;112049.66;5072726;28;20205;-76
2022/03/03 00:12:43;;;;;;;18.17;14.00;;;4.90;52.40;;;-142.21;87.60;112049.66;5083577;28;20302;-72
2022/03/03 00:15:10;;;;;;;18.08;14.32;;;4.90;52.20;;;-142.21;88.05;112049.66;5072251;28;20201;-75
2022/03/03 00:17:37;;;;;;;18.10;15.13;;;4.90;52.20;;;-142.21;89.30;112049.66;5077423;28;20200;-74
2022/03/03 00:20:06;;;;;;;17.77;14.48;;;4.90;52.60;;;-142.21;87.73;112049.66;5086008;28;20295;-75
2022/03/03 00:22:33;;;;;;;17.33;14.23;;;4.80;52.60;;;-142.21;88.29;112049.66;5084427;28;20198;-76
2022/03/03 00:25:00;;;;;;;19.92;14.93;;;4.80;52.90;;;-142.21;87.87;112049.66;5079350;28;20205;-73
2022/03/03 00:27:27;;;;;;;17.33;14.90;;;4.70;52.60;;;-142.21;88.58;112049.66;5074528;28;20530;-75
2022/03/03 00:29:56;;;;;;;15.90;13.52;;;4.70;52.80;;;-142.21;89.15;112049.66;5082442;28;20584;-74
2022/03/03 00:32:23;;;;;;;17.95;14.40;;;4.80;52.90;;;-142.21;88.86;112049.66;5072007;28;20336;-74
2022/03/03 00:34:51;;;;;;;18.60;15.02;;;4.60;53.00;;;-142.21;88.66;112049.66;5080302;28;20220;-73
2022/03/03 00:37:18;;;;;;;16.30;14.15;;;4.60;53.00;;;-142.21;89.77;112049.66;5090066;28;20686;-77
2022/03/03 00:39:45;;;;;;;19.02;14.63;;;4.40;53.30;;;-142.21;89.99;112049.66;5078616;28;20300;-73
2022/03/03 00:42:12;;;;;;;18.90;15.15;;;4.30;53.30;;;-142.21;88.36;112049.66;5077626;28;20197;-76
2022/03/03 00:44:39;;;;;;;18.00;14.63;;;4.20;53.10;;;-142.21;87.75;112049.66;5073406;28;20203;-74
2022/03/03 00:47:08;;;;;;;17.50;15.48;;;4.30;52.50;;;-142.21;92.51;112049.66;5054706;28;20216;-76
2022/03/03 00:49:35;;;;;;;20.45;15.65;;;4.20;53.40;;;-142.21;93.96;112049.66;5073229;28;20223;-73
2022/03/03 00:52:02;;;;;;;19.98;16.05;;;4.20;54.00;;;-142.21;92.64;112049.66;5054639;28;20225;-73
2022/03/03 00:54:30;;;;;;;20.73;15.55;;;4.10;53.90;;;-142.21;91.20;112049.66;5081457;28;20570;-74
2022/03/03 00:56:57;;;;;;;21.05;15.82;;;4.20;53.70;;;-142.21;91.79;112049.66;5071555;28;20221;-72
2022/03/03 00:59:24;;;;;;;17.00;13.60;;;4.10;53.50;;;-142.21;91.24;112049.66;5061697;28;20209;-75
2022/03/03 01:01:51;;;;;;;19.48;14.82;;;4.20;53.20;;;-142.21;91.17;112049.66;5067982;28;20200;-76
2022/03/03 01:04:20;;;;;;;18.00;14.15;;;4.30;53.50;;;-142.21;91.75;112049.66;5073995;28;20207;-74
2022/03/03 01:06:48;;;;;;;19.65;15.15;;;4.20;53.20;;;-142.21;91.21;112049.66;5072612;28;20205;-74
2022/03/03 01:09:16;;;;;;;19.05;14.60;;;4.30;53.30;;;-142.21;91.19;112049.66;5071716;28;20288;-75
2022/03/03 01:11:43;;;;;;;16.58;13.80;;;4.30;54.10;;;-142.21;90.50;112049.66;5076355;28;20208;-76
2022/03/03 01:14:10;;;;;;;18.50;14.60;;;4.30;53.40;;;-142.21;90.71;112049.66;5086389;28;20215;-74
2022/03/03 01:16:37;;;;;;;20.80;15.27;;;4.20;54.40;;;-142.21;91.05;112049.66;5087240;28;20267;-75
2022/03/03 01:19:05;;;;;;;20.50;15.90;;;4.10;53.90;;;-142.21;91.47;112049.66;5084011;28;20254;-74
2022/03/03 01:21:33;;;;;;;21.63;16.73;;;4.00;53.80;;;-142.21;93.13;112049.66;5045947;28;20201;-75
2022/03/03 01:24:02;;;;;;;20.83;17.15;;;4.00;53.90;;;-142.21;93.67;112049.66;5070256;28;20244;-75
2022/03/03 01:26:29;;;;;;;18.02;15.43;;;4.10;54.30;;;-142.21;93.26;112049.66;5088376;28;20204;-74
2022/03/03 01:28:57;;;;;;;17.55;14.45;;;4.00;54.20;;;-142.21;92.61;112049.66;5075303;28;20653;-75
2022/03/03 01:31:25;;;;;;;20.65;15.88;;;4.00;54.30;;;-142.21;92.20;112049.66;5078771;28;20600;-72
2022/03/03 01:33:52;;;;;;;18.50;14.93;;;3.90;54.20;;;-142.21;91.19;112049.66;5085447;28;20310;-75
2022/03/03 01:36:19;;;;;;;16.67;14.57;;;3.90;54.10;;;-142.21;90.74;112049.66;5079746;28;20215;-73
2022/03/03 01:38:48;;;;;;;17.73;15.35;;;4.00;53.90;;;-142.21;90.23;112049.66;5074424;28;20197;-73
2022/03/03 01:41:15;;;;;;;19.20;14.55;;;4.00;53.90;;;-142.21;89.51;112049.66;5086672;28;20234;-75
2022/03/03 01:43:42;;;;;;;21.55;16.02;;;4.00;53.90;;;-142.21;89.79;112049.66;5075148;28;20201;-74
2022/03/03 01:46:10;;;;;;;20.52;15.82;;;3.90;53.70;;;-142.21;90.52;112049.66;5053351;28;20227;-75
2022/03/03 01:48:37;;;;;;;20.77;15.77;;;4.00;53.60;;;-142.21;91.43;112049.66;5076372;28;20627;-75
2022/03/03 01:51:04;;;;;;;20.27;16.02;;;3.90;53.80;;;-142.21;91.57;112049.66;5076184;28;20208;-75
2022/03/03 01:53:31;;;;;;;18.30;15.15;;;3.90;53.90;;;-142.21;90.55;112049.66;5077805;28;20229;-73
2022/03/03 01:56:00;;;;;;;20.35;16.42;;;3.90;53.80;;;-142.21;90.61;112049.66;5080011;28;20196;-76
2022/03/03 01:58:27;;;;;;;20.75;16.05;;;3.90;53.80;;;-142.21;92.69;112049.66;5083932;28;20220;-77
2022/03/03 02:00:54;;;;;;;19.92;16.08;;;3.80;54.40;;;-142.21;93.17;112049.66;5085385;28;20197;-75
2022/03/03 02:03:22;;;;;;;20.30;15.88;;;3.70;54.60;;;-142.21;91.64;112049.66;5082596;28;20284;-76
2022/03/03 02:05:49;;;;;;;21.83;15.80;;;3.70;54.30;;;-142.21;92.22;112049.66;5078657;28;20299;-75
2022/03/03 02:08:17;;;;;;;20.73;16.83;;;3.70;54.20;;;-142.21;92.96;112049.66;5090796;28;20259;-74
2022/03/03 02:10:44;;;;;;;19.15;15.02;;;3.70;54.30;;;-142.21;92.78;112049.66;5059312;28;20544;-76
2022/03/03 02:13:13;;;;;;;20.30;16.17;;;3.70;54.30;;;-142.21;93.43;112049.66;5079382;28;20685;-75
2022/03/03 02:15:40;;;;;;;18.33;15.10;;;3.70;54.40;;;-142.21;93.98;112049.66;5075432;28;20206;-75
2022/03/03 02:18:07;;;;;;;20.88;15.45;;;3.60;54.90;;;-142.21;93.29;112049.66;5075451;28;20300;-75
2022/03/03 02:20:37;;;;;;;19.00;14.88;;;3.50;54.80;;;-142.21;93.56;112049.66;5081894;28;20240;-75
2022/03/03 02:23:05;;;;;;;18.45;15.25;;;3.60;55.40;;;-142.21;93.60;112049.66;5058162;28;20204;-75
2022/03/03 02:25:33;;;;;;;21.20;14.93;;;3.50;55.20;;;-142.21;92.70;112049.66;5062214;28;20283;-76
2022/03/03 02:28:00;;;;;;;21.25;16.02;;;3.60;54.70;;;-142.21;93.70;112049.66;5082243;28;20621;-75
2022/03/03 02:30:27;;;;;;;21.17;15.07;;;3.60;54.80;;;-142.21;92.51;112049.66;5076431;28;20201;-78
2022/03/03 02:32:54;;;;;;;18.85;14.88;;;3.60;54.60;;;-142.21;92.46;112049.66;5075315;28;20227;-75
2022/03/03 02:35:21;;;;;;;20.27;14.75;;;3.70;54.20;;;-142.21;93.93;112049.66;5086068;28;20213;-75
2022/03/03 02:37:50;;;;;;;17.27;15.15;;;3.70;54.20;;;-142.21;94.10;112049.66;5085173;28;20198;-74
2022/03/03 02:40:21;;;;;;;18.00;14.55;;;3.60;54.90;;;-142.21;93.87;112049.66;5079548;28;20208;-75
2022/03/03 02:42:48;;;;;;;16.48;14.63;;;3.50;54.90;;;-142.21;92.61;112049.66;5085797;28;20197;-75
2022/03/03 02:45:15;;;;;;;21.63;15.88;;;3.50;54.80;;;-142.21;92.49;112049.66;5056478;28;20209;-76
2022/03/03 02:47:45;;;;;;;17.25;14.20;;;3.40;55.00;;;-142.21;91.95;112049.66;5074779;28;20293;-75
2022/03/03 02:50:13;;;;;;;19.60;14.65;;;3.40;54.80;;;-142.21;90.69;112049.66;5085544;28;20207;-74
2022/03/03 02:52:41;;;;;;;16.05;13.73;;;3.40;54.50;;;-142.21;90.32;112049.66;5090711;28;20311;-76
2022/03/03 02:55:12;;;;;;;15.18;13.00;;;3.30;53.90;;;-142.21;91.48;112049.66;5089532;28;20228;-73
2022/03/03 02:57:56;;;;;;;18.30;14.75;;;3.50;54.10;;;-142.21;92.27;112049.66;5091348;28;20763;-74
2022/03/03 03:00:25;;;;;;;16.83;13.07;;;3.60;54.10;;;-142.21;92.53;112049.66;5077866;28;20227;-73
2022/03/03 03:02:53;;;;;;;19.27;13.25;;;3.60;54.50;;;-142.21;91.11;112049.66;5070780;28;20204;-75
2022/03/03 03:05:22;;;;;;;16.30;13.68;;;3.60;54.30;;;-142.21;91.15;112049.66;5031084;28;20698;-73
2022/03/03 03:07:50;;;;;;;18.70;14.00;;;3.60;54.10;;;-142.21;92.20;112049.66;5057264;28;20671;-75
2022/03/03 03:10:18;;;;;;;16.70;13.73;;;3.50;54.20;;;-142.21;92.64;112049.66;5079371;28;20296;-75
2022/03/03 03:12:45;;;;;;;18.20;14.07;;;3.50;54.20;;;-142.21;91.50;112049.66;5073590;28;20693;-75
2022/03/03 03:15:13;;;;;;;15.93;13.45;;;3.50;54.20;;;-142.21;90.63;112049.66;5078461;28;20200;-74
2022/03/03 03:17:40;;;;;;;17.48;14.05;;;3.50;54.20;;;-142.21;90.57;112049.66;5077635;28;20292;-74
2022/03/03 03:20:09;;;;;;;16.55;13.60;;;3.50;54.40;;;-142.21;90.27;112049.66;5075600;28;20194;-76
2022/03/03 03:22:37;;;;;;;19.92;14.48;;;3.40;54.20;;;-142.21;91.76;112049.66;5066668;28;20207;-75
2022/03/03 03:25:07;;;;;;;18.15;15.35;;;3.30;54.30;;;-142.21;92.60;112049.66;5068075;28;20248;-74
2022/03/03 03:27:36;;;;;;;20.42;15.70;;;3.30;54.30;;;-142.21;93.81;112049.66;5073993;28;20288;-74
2022/03/03 03:30:05;;;;;;;20.70;15.15;;;3.30;54.90;;;-142.21;93.96;112049.66;5057950;28;20201;-75
2022/03/03 03:32:32;;;;;;;19.23;14.38;;;3.30;54.70;;;-142.21;93.16;112049.66;5072086;28;20217;-75
2022/03/03 03:35:00;;;;;;;17.92;14.95;;;3.30;54.50;;;-142.21;93.57;112049.66;5073511;28;20205;-76
2022/03/03 03:37:27;;;;;;;18.45;15.68;;;3.40;54.70;;;-142.21;92.96;112049.66;5097960;28;20197;-75
2022/03/03 03:39:54;;;;;;;18.33;14.93;;;3.30;54.70;;;-142.21;94.86;112049.66;5105936;28;20241;-76
2022/03/03 03:42:21;;;;;;;17.83;14.32;;;3.20;55.20;;;-142.21;93.37;112049.66;5101136;28;20200;-76
2022/03/03 03:44:52;;;;;;;19.60;15.60;;;3.30;54.70;;;-142.21;94.51;112049.66;5083217;28;20191;-76
2022/03/03 03:47:19;;;;;;;19.27;14.70;;;3.20;55.10;;;-142.21;93.63;112049.66;5101273;28;20177;-75
2022/03/03 03:49:46;;;;;;;19.42;14.63;;;3.20;54.80;;;-142.21;93.16;112049.66;5112301;28;20257;-75
2022/03/03 03:52:13;;;;;;;17.08;14.00;;;3.30;54.50;;;-142.21;93.63;112049.66;5067355;28;20186;-76
2022/03/03 03:54:40;;;;;;;16.75;13.82;;;3.30;54.70;;;-142.21;92.58;112049.66;5113031;28;20220;-74
2022/03/03 03:57:07;;;;;;;19.25;14.93;;;3.40;54.50;;;-142.21;91.95;112049.66;5073901;28;20309;-73
2022/03/03 03:59:35;;;;;;;16.13;13.77;;;3.30;54.50;;;-142.21;92.75;112049.66;5059747;28;20203;-75
2022/03/03 04:02:04;;;;;;;21.77;16.63;;;3.30;54.70;;;-142.21;93.26;112049.66;5046318;28;20733;-75
2022/03/03 04:04:31;;;;;;;16.73;13.75;;;3.10;55.20;;;-142.21;92.25;112049.66;5078883;28;20564;-75
2022/03/03 04:06:58;;;;;;;20.60;16.02;;;3.10;55.00;;;-142.21;92.53;112049.66;5080563;28;20204;-75
2022/03/03 04:09:25;;;;;;;19.02;14.55;;;3.00;55.20;;;-142.21;92.58;112049.66;5055803;28;20292;-74
2022/03/03 04:11:52;;;;;;;19.40;15.68;;;3.00;55.30;;;-142.21;93.19;112049.66;5059178;28;20196;-73
2022/03/03 04:14:19;;;;;;;18.25;15.57;;;3.00;55.40;;;-142.21;92.18;112049.66;5078566;28;20584;-73
2022/03/03 04:16:46;;;;;;;20.73;16.23;;;3.10;55.30;;;-142.21;92.83;112049.66;5022552;28;20280;-75
2022/03/03 04:19:15;;;;;;;24.38;15.88;;;3.00;55.40;;;-142.21;92.70;112049.66;5072501;28;20201;-74
2022/03/03 04:21:42;;;;;;;19.77;15.57;;;2.90;55.50;;;-142.21;92.00;112049.66;5075082;28;20288;-73
2022/03/03 04:24:10;;;;;;;19.35;14.55;;;2.90;55.10;;;-142.21;91.82;112049.66;5082053;28;20649;-76
2022/03/03 04:26:37;;;;;;;19.88;15.27;;;3.00;54.90;;;-142.21;92.54;112049.66;5078760;28;20289;-74
2022/03/03 04:29:05;;;;;;;20.63;15.88;;;2.90;54.80;;;-142.21;93.28;112049.66;5085891;28;20291;-75
2022/03/03 04:31:32;;;;;;;20.17;16.08;;;2.90;55.10;;;-142.21;93.68;112049.66;5072477;28;20293;-74
2022/03/03 04:34:00;;;;;;;23.65;15.57;;;2.90;55.00;;;-142.21;93.06;112049.66;5055988;28;20307;-74
2022/03/03 04:36:28;;;;;;;20.65;14.80;;;2.90;54.90;;;-142.21;93.38;112049.66;5081624;28;20232;-74
2022/03/03 04:38:55;;;;;;;20.35;16.48;;;2.90;55.10;;;-142.21;94.08;112049.66;5071700;28;20209;-73
2022/03/03 04:41:23;;;;;;;23.30;16.25;;;2.90;55.40;;;-142.21;93.09;112049.66;5071936;28;20288;-76
2022/03/03 04:43:50;;;;;;;19.70;15.20;;;2.90;55.10;;;-142.21;94.00;112049.66;5072334;28;20207;-75
2022/03/03 04:46:18;;;;;;;18.42;14.63;;;2.80;56.10;;;-142.21;93.05;112049.66;5074618;28;20204;-73
2022/03/03 04:48:45;;;;;;;19.25;15.10;;;2.70;55.60;;;-142.21;92.32;112049.66;5057796;28;20625;-75
2022/03/03 04:51:12;;;;;;;21.23;15.65;;;2.80;55.40;;;-142.21;92.20;112049.66;5072050;28;20205;-74
2022/03/03 04:53:42;;;;;;;19.98;15.80;;;2.90;55.10;;;-142.21;92.25;112049.66;5071133;28;20260;-74
2022/03/03 04:56:09;;;;;;;17.48;14.63;;;2.80;55.00;;;-142.21;92.06;112049.66;5076461;28;20197;-73
2022/03/03 04:58:38;;;;;;;19.55;15.20;;;2.70;55.20;;;-142.21;92.53;112049.66;5044969;28;20207;-74
2022/03/03 05:01:05;;;;;;;19.75;16.00;;;2.70;55.10;;;-142.21;93.48;112049.66;5077661;28;20199;-75
2022/03/03 05:03:32;;;;;;;19.63;15.90;;;2.80;55.50;;;-142.21;93.57;112049.66;5077948;28;20197;-72
2022/03/03 05:06:00;;;;;;;21.65;15.20;;;2.70;55.20;;;-142.21;94.24;112049.66;5073321;28;20196;-73
2022/03/03 05:08:27;;;;;;;19.67;15.68;;;2.70;55.50;;;-142.21;93.83;112049.66;5072674;28;20292;-75
2022/03/03 05:10:56;;;;;;;21.65;16.73;;;2.80;55.70;;;-142.21;93.15;112049.66;5071753;28;20196;-75
2022/03/03 05:13:23;;;;;;;21.50;15.95;;;2.80;55.40;;;-142.21;92.97;112049.66;5060203;28;20220;-73
2022/03/03 05:15:50;;;;;;;20.75;15.43;;;2.70;55.60;;;-142.21;91.93;112049.66;5073999;28;20297;-73
2022/03/03 05:18:18;;;;;;;18.48;14.85;;;2.80;55.30;;;-142.21;92.96;112049.66;5081326;28;20291;-74
2022/03/03 05:20:45;;;;;;;18.95;15.88;;;2.80;55.00;;;-142.21;93.58;112049.66;5092181;28;20827;-73
2022/03/03 05:23:13;;;;;;;18.08;14.55;;;2.70;55.40;;;-142.21;92.35;112049.66;5080438;28;20665;-74
2022/03/03 05:25:40;;;;;;;18.35;14.43;;;2.70;55.00;;;-142.21;92.03;112049.66;5054351;28;20216;-76
2022/03/03 05:28:09;;;;;;;18.05;14.82;;;2.80;54.60;;;-142.21;91.57;112049.66;5079636;28;20211;-74
2022/03/03 05:30:38;;;;;;;17.63;14.38;;;2.80;54.70;;;-142.21;91.23;112049.66;5087088;28;20292;-74
2022/03/03 05:33:05;;;;;;;17.38;14.13;;;2.80;54.70;;;-142.21;91.34;112049.66;5063193;28;20200;-74
2022/03/03 05:35:33;;;;;;;19.20;14.95;;;2.70;54.60;;;-142.21;91.51;112049.66;5086575;28;20588;-73
2022/03/03 05:38:00;;;;;;;16.77;13.45;;;2.80;55.00;;;-142.21;91.36;112049.66;5081997;28;20196;-74
2022/03/03 05:40:28;;;;;;;21.52;14.57;;;2.80;55.00;;;-142.21;90.48;112049.66;5061040;28;20296;-74
2022/03/03 05:42:55;;;;;;;17.13;13.82;;;2.80;54.70;;;-142.21;90.39;112049.66;5085726;28;20201;-73
2022/03/03 05:45:24;;;;;;;18.98;14.25;;;2.80;54.30;;;-142.21;91.32;112049.66;5075240;28;20602;-74
2022/03/03 05:47:53;;;;;;;19.95;14.63;;;2.80;55.20;;;-142.21;91.18;112049.66;5076658;28;20205;-73
2022/03/03 05:50:20;;;;;;;17.92;14.30;;;2.70;54.30;;;-142.21;91.60;112049.66;5075921;28;20201;-74
2022/03/03 05:52:47;;;;;;;18.17;14.90;;;2.70;54.50;;;-142.21;92.06;112049.66;5079034;28;20201;-74
2022/03/03 05:55:15;;;;;;;19.45;14.55;;;2.70;55.00;;;-142.21;91.55;112049.66;5080336;28;20216;-73
2022/03/03 05:57:48;;;;;;;20.10;15.27;;;2.60;54.80;;;-142.21;92.01;112049.66;5065729;28;20241;-74
2022/03/03 06:00:18;;;;;;;23.88;16.05;;;2.60;54.90;;;-142.21;91.29;112049.66;5083865;28;20682;-74
2022/03/03 06:02:53;;;;;;;20.15;15.68;;;2.50;54.80;;;-142.21;92.02;112049.66;5076870;28;20204;-75
2022/03/03 06:05:24;;;;;;;20.63;15.35;;;2.50;55.30;;;-142.21;92.33;112049.66;5073669;28;20280;-78
2022/03/03 06:07:54;;;;;;;17.92;14.68;;;2.60;55.50;;;-142.21;92.32;112049.66;5076093;28;20274;-77
2022/03/03 06:10:25;;;;;;;21.67;16.35;;;2.60;55.40;;;-142.21;91.83;112049.66;5087237;28;20653;-78
2022/03/03 06:13:06;;;;;;;19.73;15.88;;;2.60;55.50;;;-142.21;92.75;112049.66;5041839;28;20205;-77
2022/03/03 06:15:36;;;;;;;20.33;16.88;;;2.50;55.70;;;-142.21;93.26;112049.66;5075867;28;20193;-76
2022/03/03 06:18:07;;;;;;;21.85;16.92;;;2.50;55.70;;;-142.21;92.70;112049.66;5081630;28;20276;-76
2022/03/03 06:20:37;;;;;;;19.77;16.00;;;2.50;55.40;;;-142.21;92.79;112049.66;5079284;28;20224;-76
2022/03/03 06:23:04;;;;;;;23.83;16.92;;;2.60;55.50;;;-142.21;92.07;112049.66;5082552;28;20192;-76
2022/03/03 06:25:32;;;;;;;21.77;17.30;;;2.50;55.80;;;-142.21;93.84;112049.66;5081211;28;20196;-78
2022/03/03 06:28:00;;;;;;;23.75;17.70;;;2.50;55.60;;;-142.21;93.76;112049.66;5083043;28;20201;-78
2022/03/03 06:30:29;;;;;;;24.58;17.05;;;2.60;55.40;;;-142.21;94.26;112049.66;5075538;28;20206;-76
2022/03/03 06:32:56;;;;;;;20.58;17.13;;;2.50;55.50;;;-142.21;95.34;112049.66;5054696;28;20238;-77
2022/03/03 06:35:24;;;;;;;21.27;16.10;;;2.50;56.10;;;-142.21;95.77;112049.66;5085120;28;20227;-77
2022/03/03 06:37:51;;;;;;;22.85;17.35;;;2.40;56.50;;;-142.21;97.05;112049.66;5078424;28;20288;-76
2022/03/03 06:40:19;;;;;;;19.80;16.27;;;2.40;56.40;;;-142.21;98.76;112049.66;5074982;28;20292;-77
2022/03/03 06:42:46;;;;;;;19.23;16.08;;;2.30;56.60;;;-142.21;98.67;112049.66;5078699;28;20201;-77
2022/03/03 06:45:13;;;;;;;21.02;16.20;;;2.30;57.20;;;-142.21;98.93;112049.66;5075167;28;20233;-77
2022/03/03 06:47:40;;;;;;;21.58;16.60;;;2.40;57.30;;;-142.21;98.78;112049.66;5080360;28;20204;-77
2022/03/03 06:50:08;;;;;;;19.83;16.23;;;2.50;57.50;;;-142.21;98.41;112049.66;5057958;28;20197;-78
2022/03/03 06:52:38;;;;;;;23.38;16.38;;;2.60;57.10;;;-142.21;97.99;112049.66;5075116;28;20288;-77
2022/03/03 06:55:08;;;;;;;22.00;16.70;;;2.80;57.30;;;-142.21;98.38;112049.66;5080090;28;20680;-76
2022/03/03 06:57:39;;;;;;;25.65;16.50;;;3.00;57.10;;;-142.21;98.67;112049.66;5089128;28;20281;-79
2022/03/03 07:00:09;;;;;;;22.35;16.63;;;3.20;57.30;;;-142.21;98.75;112049.66;5062327;28;20198;-78
2022/03/03 07:02:38;;;;;;;22.50;16.15;;;3.40;56.80;;;-142.21;98.76;112049.66;5073747;28;20194;-77
2022/03/03 07:05:06;;;;;;;20.23;15.18;;;3.60;56.80;;;-142.21;98.34;112049.66;5066216;28;20525;-77
2022/03/03 07:07:35;;;;;;;19.23;15.30;;;3.90;57.30;;;-142.21;98.33;112049.66;5093771;28;20243;-78
2022/03/03 07:10:05;;;;;;;19.40;15.27;;;4.10;56.00;;;-142.21;98.50;112049.66;5093872;28;20234;-77
2022/03/03 07:12:35;;;;;;;22.70;15.73;;;4.00;55.90;;;-142.21;99.20;112049.66;5093999;28;20307;-75
2022/03/03 07:15:02;;;;;;;20.00;15.30;;;4.00;56.30;;;-142.21;99.23;112049.66;5078568;28;20205;-76
2022/03/03 07:17:45;;;;;;;21.42;16.45;;;4.20;56.40;;;-142.21;98.95;112049.66;5077924;28;20200;-77
2022/03/03 07:20:19;;;;;;;21.27;15.73;;;4.20;56.30;;;-142.21;98.43;112049.66;5094828;28;20619;-77
2022/03/03 07:23:02;;;;;;;17.92;15.13;;;4.30;56.10;;;-142.21;97.68;112049.66;5092950;28;20196;-76
2022/03/03 07:25:46;;;;;;;26.00;15.00;;;4.50;56.10;;;-142.21;96.30;112049.66;5070429;28;20523;-75
2022/03/03 07:28:15;;;;;;;19.90;15.32;;;4.70;55.70;;;-142.21;97.08;112049.66;5076387;28;20217;-75
2022/03/03 07:30:44;;;;;;;22.65;16.48;;;4.80;55.40;;;-142.21;97.60;112049.66;5073381;28;20288;-76
2022/03/03 07:33:17;;;;;;;17.98;14.05;;;4.80;55.50;;;-142.21;96.95;112049.66;5079926;28;20200;-79
2022/03/03 07:35:46;;;;;;;19.13;14.02;;;5.40;55.40;;;-142.21;97.38;112049.66;5091662;28;20205;-77
2022/03/03 07:38:19;;;;;;;17.63;13.93;;;6.30;53.80;;;-142.21;96.88;112049.66;5062495;28;20677;-78
2022/03/03 07:40:50;;;;;;;24.85;15.57;;;6.20;53.00;;;-142.21;96.83;112049.66;5079145;28;20238;-78
2022/03/03 07:43:18;;;;;;;17.17;13.75;;;6.00;53.10;;;-142.21;96.91;112049.66;5093402;28;20209;-78
2022/03/03 07:45:47;;;;;;;16.52;13.50;;;5.80;53.40;;;-142.21;97.28;112049.66;5083208;28;20198;-78
2022/03/03 07:48:15;;;;;;;21.15;14.90;;;5.80;53.80;;;-142.21;97.31;112049.66;5075896;28;20243;-78
2022/03/03 07:50:44;;;;;;;18.85;14.48;;;5.90;54.80;;;-142.21;95.62;112049.66;5077915;28;20204;-78
2022/03/03 07:53:13;;;;;;;20.00;15.48;;;5.90;54.20;;;-142.21;95.92;112049.66;5073406;28;20237;-77
2022/03/03 07:55:45;;;;;;;19.48;15.32;;;6.00;54.30;;;-142.21;95.58;112049.66;5055788;28;20212;-78
2022/03/03 07:58:18;;;;;;;20.13;15.93;;;6.00;54.40;;;-142.21;95.31;112049.66;5065940;28;20337;-77
2022/03/03 08:00:51;;;;;;;23.37;16.13;;;6.10;54.40;;;-142.21;95.89;112049.66;5076172;28;20189;-78
2022/03/03 08:03:21;;;;;;;17.52;14.88;;;6.30;54.30;;;-142.21;94.76;112049.66;5081407;28;20450;-77
2022/03/03 08:05:52;;;;;;;16.58;14.40;;;6.40;54.10;;;-142.21;92.49;112049.66;5073515;28;20617;-78
2022/03/03 08:08:25;;;;;;;17.05;14.18;;;6.40;53.30;;;-142.21;92.10;112049.66;5072702;28;20224;-78
2022/03/03 08:10:59;;;;;;;18.67;15.45;;;6.60;53.70;;;-142.21;92.76;112049.66;5072602;28;20201;-79
2022/03/03 08:13:30;;;;;;;18.53;14.43;;;6.70;53.80;;;-142.21;92.79;112049.66;5073076;28;20284;-78
2022/03/03 08:15:59;;;;;;;19.03;14.40;;;6.80;53.50;;;-142.21;92.74;112049.66;5058389;28;20549;-77
2022/03/03 08:18:29;;;;;;;17.80;15.23;;;6.90;53.10;;;-142.21;90.74;112049.66;5074064;28;20443;-77
2022/03/03 08:20:57;;;;;;;18.47;14.47;;;7.00;53.00;;;-142.21;91.31;112049.66;5068980;28;20445;-77
2022/03/03 08:23:27;;;;;;;15.30;13.70;;;7.10;53.00;;;-142.21;90.66;112049.66;5081006;28;20818;-79
2022/03/03 08:25:55;;;;;;;17.27;14.37;;;7.20;52.80;;;-142.21;91.12;112049.66;5082064;28;20438;-80
2022/03/03 08:28:24;;;;;;;18.33;15.27;;;7.40;52.50;;;-142.21;89.47;112049.66;5091364;28;20845;-80
2022/03/03 08:31:00;;;;;;;16.90;15.10;;;7.40;52.40;;;-142.21;90.15;112049.66;5073324;28;20447;-80
2022/03/03 08:33:41;;;;;;;19.63;15.97;;;7.40;52.40;;;-142.21;89.84;112049.66;5073750;28;20415;-79
2022/03/03 08:36:19;;;;;;;18.47;16.23;;;7.40;52.40;;;-142.21;89.65;112049.66;5093167;28;20514;-79
2022/03/03 08:38:52;;;;;;;20.30;17.10;;;7.40;52.50;;;-142.21;88.88;112049.66;5087196;28;20911;-79
2022/03/03 08:41:22;;;;;;;20.40;17.80;;;7.40;52.60;;;-142.21;88.86;112049.66;5072923;28;20510;-79
2022/03/03 08:43:53;;;;;;;18.65;16.75;;;7.40;52.60;;;-142.21;88.98;112049.66;5072922;28;20447;-80
2022/03/03 08:46:26;;;;;;;20.20;17.43;;;7.50;52.80;;;-142.21;87.57;112049.66;5072908;28;20244;-79
2022/03/03 08:48:57;;;;;;;20.30;16.70;;;7.50;52.40;;;-142.21;87.70;112049.66;5073128;28;20436;-79
2022/03/03 08:51:26;;;;;;;20.17;17.93;;;7.70;52.30;;;-142.21;87.15;112049.66;5074812;28;21009;-79
2022/03/03 08:53:53;;;;;;;18.47;16.47;;;7.70;52.10;;;-142.21;87.24;112049.66;5072254;28;20507;-80
2022/03/03 08:56:22;;;;;;;17.70;15.80;;;7.70;52.30;;;-142.21;85.85;112049.66;5074660;28;20517;-80
2022/03/03 09:02:43;;;;;;;17.13;15.43;;;8.30;51.70;;;-142.21;82.32;112049.66;5002050;28;20457;-78
2022/03/03 09:05:25;;;;;;;19.30;16.53;;;8.50;50.60;;;-142.21;81.45;112049.66;5076914;28;20550;-77
2022/03/03 09:07:53;;;;;;;18.80;15.27;;;8.60;50.30;;;-142.21;80.46;112049.66;5072865;28;20528;-77
2022/03/03 09:10:20;;;;;;;19.17;15.73;;;9.00;50.00;;;-142.21;79.86;112049.66;5072493;28;20509;-77
2022/03/03 09:13:40;;;;;;;18.33;16.43;;;9.30;49.60;;;-142.21;78.25;112049.66;5071910;28;20927;-77
2022/03/03 09:20:02;;;;;;;17.53;15.73;;;10.00;46.50;;;-142.21;70.91;112049.66;5010125;28;20478;-77
2022/03/03 09:22:31;;;;;;;17.67;15.37;;;10.40;45.90;;;-142.21;72.30;112049.66;5029965;28;20445;-81
2022/03/03 09:25:08;;;;;;;16.97;14.73;;;11.30;46.70;;;-142.21;71.81;112049.66;5011255;28;20532;-81
2022/03/03 09:27:36;;;;;;;16.33;14.77;;;12.50;45.60;;;-142.21;67.34;112049.66;5011517;28;20482;-80
2022/03/03 09:30:23;;;;;;;;;;;;;;;;;;;;;
2022/03/03 09:32:58;;;;;;;17.60;15.90;;;15.10;40.80;;;-142.21;63.93;112049.66;5001523;28;20462;-84
2022/03/03 09:35:42;;;;;;;17.43;15.73;;;16.70;40.90;;;-142.21;60.54;112049.66;5011883;28;20338;-81
2022/03/03 09:38:13;;;;;;;16.97;15.27;;;18.00;37.20;;;-142.21;59.73;112049.66;5002477;28;20738;-81
2022/03/03 09:40:43;;;;;;;17.37;15.73;;;19.20;37.00;;;-142.21;60.63;112049.66;5023223;28;20199;-80
2022/03/03 09:43:13;;;;;;;17.00;15.30;;;20.20;35.20;;;-142.21;57.41;112049.66;5021531;28;20633;-82
2022/03/03 09:45:40;;;;;;;18.57;16.73;;;21.10;34.60;;;-142.21;54.86;112049.66;5030464;28;20332;-79
2022/03/03 09:48:09;;;;;;;17.73;15.97;;;21.80;32.90;;;-142.21;56.34;112049.66;5030069;28;20389;-79
2022/03/03 09:50:40;;;;;;;17.57;15.97;;;22.50;32.70;;;-142.21;53.89;112049.66;5075750;28;20253;-80
2022/03/03 09:53:09;;;;;;;17.20;15.53;;;22.90;31.00;;;-142.21;52.60;112049.66;5082034;28;20240;-80
2022/03/03 09:55:37;;;;;;;17.43;15.83;;;23.40;30.80;;;-142.21;50.36;112049.66;5071513;28;20262;-79
2022/03/03 09:58:06;;;;;;;17.03;15.43;;;24.00;30.20;;;-142.21;48.95;112049.66;5071615;28;20201;-79
2022/03/03 10:00:37;;;;;;;17.23;15.70;;;24.30;29.30;;;-142.21;49.27;112049.66;5071613;28;20214;-79
2022/03/03 10:03:10;;;;;;;18.30;15.97;;;24.70;29.40;;;-142.21;48.64;112049.66;5082106;28;20195;-79
2022/03/03 10:05:50;;;;;;;17.57;15.97;;;24.90;28.30;;;-142.21;46.64;112049.66;5091341;28;20213;-80
2022/03/03 10:08:23;;;;;;;16.87;15.37;;;25.10;28.00;;;-142.21;44.19;112049.66;5092233;28;20286;-75
2022/03/03 10:10:54;;;;;;;16.63;15.23;;;25.20;27.40;;;-142.21;42.07;112049.66;5083571;28;20204;-78